sensor_id;sensor_type;location;lat;lon;timestamp;pressure;altitude;pressure_sealevel;temperature;humidity
71638;BME280;59485;43.542;-5.676;2023-02-10T00:03:17;103578.06;;;6.06;100.00
71638;BME280;59485;43.542;-5.676;2023-02-10T00:08:18;103580.38;;;5.98;100.00
71638;BME280;59485;43.542;-5.676;2023-02-10T00:10:43;103579.81;;;5.91;100.00
71638;BME280;59485;43.542;-5.676;2023-02-10T00:13:08;103582.97;;;5.84;100.00
71638;BME280;59485;43.542;-5.676;2023-02-10T00:15:36;103581.66;;;5.75;100.00
71638;BME280;59485;43.542;-5.676;2023-02-10T00:20:43;103579.84;;;5.60;100.00
71638;BME280;59485;43.542;-5.676;2023-02-10T00:25:34;103584.53;;;5.42;100.00
71638;BME280;59485;43.542;-5.676;2023-02-10T00:30:53;103588.88;;;5.29;100.00
71638;BME280;59485;43.542;-5.676;2023-02-10T00:33:19;103591.88;;;5.24;100.00
71638;BME280;59485;43.542;-5.676;2023-02-10T00:35:44;103583.44;;;5.29;100.00
71638;BME280;59485;43.542;-5.676;2023-02-10T00:43:21;103581.97;;;5.08;100.00
71638;BME280;59485;43.542;-5.676;2023-02-10T00:45:53;103575.72;;;5.06;100.00
71638;BME280;59485;43.542;-5.676;2023-02-10T00:48:18;103584.03;;;5.03;100.00
71638;BME280;59485;43.542;-5.676;2023-02-10T00:50:44;103574.84;;;5.05;100.00
71638;BME280;59485;43.542;-5.676;2023-02-10T00:53:09;103582.78;;;4.93;100.00
71638;BME280;59485;43.542;-5.676;2023-02-10T00:58:32;103577.50;;;4.74;100.00
71638;BME280;59485;43.542;-5.676;2023-02-10T01:00:57;103581.84;;;4.61;100.00
71638;BME280;59485;43.542;-5.676;2023-02-10T01:05:58;103583.94;;;4.56;100.00
71638;BME280;59485;43.542;-5.676;2023-02-10T01:08:33;103572.09;;;4.57;100.00
71638;BME280;59485;43.542;-5.676;2023-02-10T01:11:08;103572.34;;;4.52;100.00
71638;BME280;59485;43.542;-5.676;2023-02-10T01:13:34;103572.00;;;4.58;100.00
71638;BME280;59485;43.542;-5.676;2023-02-10T01:16:00;103575.69;;;4.57;100.00
71638;BME280;59485;43.542;-5.676;2023-02-10T01:18:29;103574.56;;;4.61;100.00
71638;BME280;59485;43.542;-5.676;2023-02-10T01:26:38;103565.91;;;4.70;100.00
71638;BME280;59485;43.542;-5.676;2023-02-10T01:39:19;103558.84;;;4.50;100.00
71638;BME280;59485;43.542;-5.676;2023-02-10T01:47:14;103556.47;;;4.44;100.00
71638;BME280;59485;43.542;-5.676;2023-02-10T01:52:43;103559.13;;;4.46;100.00
71638;BME280;59485;43.542;-5.676;2023-02-10T02:00:47;103578.41;;;4.57;100.00
71638;BME280;59485;43.542;-5.676;2023-02-10T02:03:13;103571.13;;;4.58;100.00
71638;BME280;59485;43.542;-5.676;2023-02-10T02:05:39;103575.69;;;4.57;100.00
71638;BME280;59485;43.542;-5.676;2023-02-10T02:10:38;103578.00;;;4.65;100.00
71638;BME280;59485;43.542;-5.676;2023-02-10T02:42:17;103577.44;;;4.58;100.00
71638;BME280;59485;43.542;-5.676;2023-02-10T03:03:36;103556.81;;;4.21;100.00
71638;BME280;59485;43.542;-5.676;2023-02-10T03:06:02;103564.00;;;4.22;100.00
71638;BME280;59485;43.542;-5.676;2023-02-10T03:13:48;103558.41;;;4.25;100.00
71638;BME280;59485;43.542;-5.676;2023-02-10T03:16:13;103551.28;;;4.23;100.00
71638;BME280;59485;43.542;-5.676;2023-02-10T03:18:39;103544.09;;;4.22;100.00
71638;BME280;59485;43.542;-5.676;2023-02-10T03:21:04;103549.31;;;4.26;100.00
71638;BME280;59485;43.542;-5.676;2023-02-10T03:26:05;103539.81;;;4.18;100.00
71638;BME280;59485;43.542;-5.676;2023-02-10T03:28:30;103547.16;;;4.15;100.00
71638;BME280;59485;43.542;-5.676;2023-02-10T03:30:56;103545.41;;;4.14;100.00
71638;BME280;59485;43.542;-5.676;2023-02-10T03:36:03;103542.88;;;4.11;100.00
71638;BME280;59485;43.542;-5.676;2023-02-10T03:38:28;103539.97;;;4.14;100.00
71638;BME280;59485;43.542;-5.676;2023-02-10T03:56:42;103553.41;;;4.00;100.00
71638;BME280;59485;43.542;-5.676;2023-02-10T03:59:07;103557.06;;;3.99;100.00
71638;BME280;59485;43.542;-5.676;2023-02-10T04:01:33;103557.06;;;3.99;100.00
71638;BME280;59485;43.542;-5.676;2023-02-10T04:03:59;103551.56;;;4.01;100.00
71638;BME280;59485;43.542;-5.676;2023-02-10T04:06:24;103566.16;;;3.98;100.00
71638;BME280;59485;43.542;-5.676;2023-02-10T04:19:38;103566.16;;;3.81;100.00
71638;BME280;59485;43.542;-5.676;2023-02-10T04:22:03;103563.75;;;3.75;100.00
71638;BME280;59485;43.542;-5.676;2023-02-10T04:27:44;103564.53;;;3.77;100.00
71638;BME280;59485;43.542;-5.676;2023-02-10T04:30:10;103569.19;;;3.75;100.00
71638;BME280;59485;43.542;-5.676;2023-02-10T04:38:42;103566.81;;;3.67;100.00
71638;BME280;59485;43.542;-5.676;2023-02-10T04:44:08;103560.50;;;3.67;100.00
71638;BME280;59485;43.542;-5.676;2023-02-10T04:46:33;103572.97;;;3.71;100.00
71638;BME280;59485;43.542;-5.676;2023-02-10T04:51:39;103571.88;;;3.75;100.00
71638;BME280;59485;43.542;-5.676;2023-02-10T04:54:04;103570.19;;;3.72;100.00
71638;BME280;59485;43.542;-5.676;2023-02-10T04:56:30;103576.56;;;3.71;100.00
71638;BME280;59485;43.542;-5.676;2023-02-10T05:08:03;103574.75;;;3.72;100.00
71638;BME280;59485;43.542;-5.676;2023-02-10T05:10:29;103575.69;;;3.71;100.00
71638;BME280;59485;43.542;-5.676;2023-02-10T05:16:04;103583.97;;;3.68;100.00
71638;BME280;59485;43.542;-5.676;2023-02-10T05:18:30;103582.31;;;3.65;100.00
71638;BME280;59485;43.542;-5.676;2023-02-10T05:20:56;103584.28;;;3.62;100.00
71638;BME280;59485;43.542;-5.676;2023-02-10T05:23:21;103581.66;;;3.60;100.00
71638;BME280;59485;43.542;-5.676;2023-02-10T05:25:46;103584.53;;;3.57;100.00
71638;BME280;59485;43.542;-5.676;2023-02-10T05:28:12;103585.41;;;3.58;100.00
71638;BME280;59485;43.542;-5.676;2023-02-10T05:30:37;103586.25;;;3.58;100.00
71638;BME280;59485;43.542;-5.676;2023-02-10T05:33:03;103585.50;;;3.56;100.00
71638;BME280;59485;43.542;-5.676;2023-02-10T05:35:28;103588.34;;;3.53;100.00
71638;BME280;59485;43.542;-5.676;2023-02-10T05:37:53;103577.56;;;3.52;100.00
71638;BME280;59485;43.542;-5.676;2023-02-10T05:40:19;103583.00;;;3.52;100.00
71638;BME280;59485;43.542;-5.676;2023-02-10T05:42:44;103588.47;;;3.50;100.00
71638;BME280;59485;43.542;-5.676;2023-02-10T05:45:09;103592.94;;;3.51;100.00
71638;BME280;59485;43.542;-5.676;2023-02-10T05:47:35;103578.69;;;3.48;100.00
71638;BME280;59485;43.542;-5.676;2023-02-10T05:50:00;103579.63;;;3.47;100.00
71638;BME280;59485;43.542;-5.676;2023-02-10T05:52:26;103586.81;;;3.48;100.00
71638;BME280;59485;43.542;-5.676;2023-02-10T05:54:51;103576.13;;;3.45;100.00
71638;BME280;59485;43.542;-5.676;2023-02-10T05:57:16;103572.59;;;3.43;100.00
71638;BME280;59485;43.542;-5.676;2023-02-10T05:59:42;103573.72;;;3.38;100.00
71638;BME280;59485;43.542;-5.676;2023-02-10T06:02:07;103576.31;;;3.40;100.00
71638;BME280;59485;43.542;-5.676;2023-02-10T06:04:33;103581.19;;;3.33;100.00
71638;BME280;59485;43.542;-5.676;2023-02-10T06:07:01;103576.69;;;3.32;100.00
71638;BME280;59485;43.542;-5.676;2023-02-10T06:09:27;103571.38;;;3.31;100.00
71638;BME280;59485;43.542;-5.676;2023-02-10T06:11:52;103566.97;;;3.28;100.00
71638;BME280;59485;43.542;-5.676;2023-02-10T06:14:18;103574.22;;;3.28;100.00
71638;BME280;59485;43.542;-5.676;2023-02-10T06:16:43;103572.34;;;3.30;100.00
71638;BME280;59485;43.542;-5.676;2023-02-10T06:19:09;103572.22;;;3.31;100.00
71638;BME280;59485;43.542;-5.676;2023-02-10T06:21:34;103566.16;;;3.26;100.00
71638;BME280;59485;43.542;-5.676;2023-02-10T06:24:00;103563.47;;;3.26;100.00
71638;BME280;59485;43.542;-5.676;2023-02-10T06:26:25;103564.53;;;3.22;100.00
71638;BME280;59485;43.542;-5.676;2023-02-10T06:28:53;103565.66;;;3.18;100.00
71638;BME280;59485;43.542;-5.676;2023-02-10T06:31:18;103559.38;;;3.18;100.00
71638;BME280;59485;43.542;-5.676;2023-02-10T06:33:43;103568.38;;;3.18;100.00
71638;BME280;59485;43.542;-5.676;2023-02-10T06:36:09;103569.25;;;3.19;100.00
71638;BME280;59485;43.542;-5.676;2023-02-10T06:38:35;103575.69;;;3.16;100.00
71638;BME280;59485;43.542;-5.676;2023-02-10T06:41:00;103567.56;;;3.16;100.00
71638;BME280;59485;43.542;-5.676;2023-02-10T06:43:26;103569.47;;;3.14;100.00
71638;BME280;59485;43.542;-5.676;2023-02-10T06:45:51;103566.75;;;3.14;100.00
71638;BME280;59485;43.542;-5.676;2023-02-10T06:48:17;103575.63;;;3.18;100.00
71638;BME280;59485;43.542;-5.676;2023-02-10T06:50:42;103571.81;;;3.22;100.00
71638;BME280;59485;43.542;-5.676;2023-02-10T06:53:07;103572.78;;;3.21;100.00
71638;BME280;59485;43.542;-5.676;2023-02-10T06:55:35;103580.09;;;3.19;100.00
71638;BME280;59485;43.542;-5.676;2023-02-10T06:58:01;103576.19;;;3.24;100.00
71638;BME280;59485;43.542;-5.676;2023-02-10T07:00:27;103584.50;;;3.21;100.00
71638;BME280;59485;43.542;-5.676;2023-02-10T07:02:52;103581.69;;;3.23;100.00
71638;BME280;59485;43.542;-5.676;2023-02-10T07:05:18;103584.41;;;3.23;100.00
71638;BME280;59485;43.542;-5.676;2023-02-10T07:07:43;103591.75;;;3.21;100.00
71638;BME280;59485;43.542;-5.676;2023-02-10T07:10:09;103588.00;;;3.23;100.00
71638;BME280;59485;43.542;-5.676;2023-02-10T07:12:34;103586.97;;;3.26;100.00
71638;BME280;59485;43.542;-5.676;2023-02-10T07:15:00;103587.84;;;3.26;100.00
71638;BME280;59485;43.542;-5.676;2023-02-10T07:17:25;103586.84;;;3.29;100.00
71638;BME280;59485;43.542;-5.676;2023-02-10T07:19:51;103587.84;;;3.26;100.00
71638;BME280;59485;43.542;-5.676;2023-02-10T07:22:16;103589.75;;;3.24;100.00
71638;BME280;59485;43.542;-5.676;2023-02-10T07:24:41;103590.81;;;3.22;100.00
71638;BME280;59485;43.542;-5.676;2023-02-10T07:27:07;103589.81;;;3.23;100.00
71638;BME280;59485;43.542;-5.676;2023-02-10T07:29:32;103587.22;;;3.21;100.00
71638;BME280;59485;43.542;-5.676;2023-02-10T07:31:57;103589.09;;;3.19;100.00
71638;BME280;59485;43.542;-5.676;2023-02-10T07:34:23;103602.72;;;3.18;100.00
71638;BME280;59485;43.542;-5.676;2023-02-10T07:36:49;103584.78;;;3.15;100.00
71638;BME280;59485;43.542;-5.676;2023-02-10T07:39:19;103599.13;;;3.17;100.00
71638;BME280;59485;43.542;-5.676;2023-02-10T07:41:44;103600.00;;;3.18;100.00
71638;BME280;59485;43.542;-5.676;2023-02-10T07:44:10;103606.31;;;3.18;100.00
71638;BME280;59485;43.542;-5.676;2023-02-10T07:46:35;103599.78;;;3.22;100.00
71638;BME280;59485;43.542;-5.676;2023-02-10T07:49:01;103607.78;;;3.25;100.00
71638;BME280;59485;43.542;-5.676;2023-02-10T07:51:26;103598.69;;;3.26;100.00
71638;BME280;59485;43.542;-5.676;2023-02-10T07:53:52;103604.03;;;3.28;100.00
71638;BME280;59485;43.542;-5.676;2023-02-10T07:56:17;103598.56;;;3.29;100.00
71638;BME280;59485;43.542;-5.676;2023-02-10T07:58:42;103594.44;;;3.39;100.00
71638;BME280;59485;43.542;-5.676;2023-02-10T08:01:08;103592.97;;;3.32;100.00
71638;BME280;59485;43.542;-5.676;2023-02-10T08:03:34;103591.13;;;3.33;100.00
71638;BME280;59485;43.542;-5.676;2023-02-10T08:05:59;103601.03;;;3.34;100.00
71638;BME280;59485;43.542;-5.676;2023-02-10T08:08:25;103599.44;;;3.30;100.00
71638;BME280;59485;43.542;-5.676;2023-02-10T08:10:50;103607.19;;;3.37;100.00
71638;BME280;59485;43.542;-5.676;2023-02-10T08:13:15;103605.50;;;3.35;100.00
71638;BME280;59485;43.542;-5.676;2023-02-10T08:15:41;103598.13;;;3.38;100.00
71638;BME280;59485;43.542;-5.676;2023-02-10T08:18:06;103598.75;;;3.44;100.00
71638;BME280;59485;43.542;-5.676;2023-02-10T08:20:31;103596.03;;;3.44;100.00
71638;BME280;59485;43.542;-5.676;2023-02-10T08:22:57;103596.72;;;3.49;100.00
71638;BME280;59485;43.542;-5.676;2023-02-10T08:25:24;103609.16;;;3.53;100.00
71638;BME280;59485;43.542;-5.676;2023-02-10T08:27:49;103602.78;;;3.54;100.00
71638;BME280;59485;43.542;-5.676;2023-02-10T08:30:14;103597.28;;;3.55;100.00
71638;BME280;59485;43.542;-5.676;2023-02-10T08:32:40;103600.56;;;3.62;100.00
71638;BME280;59485;43.542;-5.676;2023-02-10T08:35:05;103593.38;;;3.61;100.00
71638;BME280;59485;43.542;-5.676;2023-02-10T08:37:31;103597.53;;;3.68;100.00
71638;BME280;59485;43.542;-5.676;2023-02-10T08:39:56;103599.16;;;3.72;100.00
71638;BME280;59485;43.542;-5.676;2023-02-10T08:42:21;103595.41;;;3.74;100.00
71638;BME280;59485;43.542;-5.676;2023-02-10T08:44:47;103601.41;;;3.81;100.00
71638;BME280;59485;43.542;-5.676;2023-02-10T08:47:12;103600.06;;;3.90;100.00
71638;BME280;59485;43.542;-5.676;2023-02-10T08:49:40;103602.63;;;3.93;100.00
71638;BME280;59485;43.542;-5.676;2023-02-10T08:52:06;103596.06;;;3.97;100.00
71638;BME280;59485;43.542;-5.676;2023-02-10T08:54:32;103599.34;;;4.03;100.00
71638;BME280;59485;43.542;-5.676;2023-02-10T08:56:57;103590.97;;;4.08;100.00
71638;BME280;59485;43.542;-5.676;2023-02-10T08:59:23;103587.94;;;4.14;100.00
71638;BME280;59485;43.542;-5.676;2023-02-10T09:01:48;103598.59;;;4.19;100.00
71638;BME280;59485;43.542;-5.676;2023-02-10T09:04:14;103588.34;;;4.24;100.00
71638;BME280;59485;43.542;-5.676;2023-02-10T09:06:40;103600.47;;;4.34;100.00
71638;BME280;59485;43.542;-5.676;2023-02-10T09:09:17;103599.19;;;4.41;100.00
71638;BME280;59485;43.542;-5.676;2023-02-10T09:11:44;103596.06;;;4.48;100.00
71638;BME280;59485;43.542;-5.676;2023-02-10T09:14:10;103591.22;;;4.55;100.00
71638;BME280;59485;43.542;-5.676;2023-02-10T09:16:35;103582.56;;;4.64;100.00
71638;BME280;59485;43.542;-5.676;2023-02-10T09:19:01;103586.78;;;4.70;100.00
71638;BME280;59485;43.542;-5.676;2023-02-10T09:21:26;103580.84;;;4.79;100.00
71638;BME280;59485;43.542;-5.676;2023-02-10T09:23:52;103584.16;;;4.84;100.00
71638;BME280;59485;43.542;-5.676;2023-02-10T09:26:17;103578.22;;;4.93;100.00
71638;BME280;59485;43.542;-5.676;2023-02-10T09:28:43;103582.47;;;4.99;100.00
71638;BME280;59485;43.542;-5.676;2023-02-10T09:31:11;103580.19;;;5.07;100.00
71638;BME280;59485;43.542;-5.676;2023-02-10T09:33:36;103578.09;;;5.12;100.00
71638;BME280;59485;43.542;-5.676;2023-02-10T09:36:02;103573.81;;;5.23;100.00
71638;BME280;59485;43.542;-5.676;2023-02-10T09:38:28;103571.59;;;5.30;100.00
71638;BME280;59485;43.542;-5.676;2023-02-10T09:41:03;103572.03;;;5.38;100.00
71638;BME280;59485;43.542;-5.676;2023-02-10T09:43:52;103572.22;;;5.51;100.00
71638;BME280;59485;43.542;-5.676;2023-02-10T09:51:15;103567.53;;;5.84;100.00
71638;BME280;59485;43.542;-5.676;2023-02-10T09:53:46;103565.06;;;5.95;100.00
71638;BME280;59485;43.542;-5.676;2023-02-10T09:56:14;103562.59;;;6.07;100.00
71638;BME280;59485;43.542;-5.676;2023-02-10T09:58:42;103564.66;;;6.17;100.00
71638;BME280;59485;43.542;-5.676;2023-02-10T10:03:59;103559.72;;;6.38;100.00
71638;BME280;59485;43.542;-5.676;2023-02-10T10:14:23;103561.59;;;6.80;100.00
71638;BME280;59485;43.542;-5.676;2023-02-10T10:24:26;103544.03;;;7.27;100.00
71638;BME280;59485;43.542;-5.676;2023-02-10T10:32:01;103551.44;;;7.66;100.00
71638;BME280;59485;43.542;-5.676;2023-02-10T10:34:31;103542.00;;;7.84;100.00
71638;BME280;59485;43.542;-5.676;2023-02-10T10:36:59;103545.31;;;8.02;100.00
71638;BME280;59485;43.542;-5.676;2023-02-10T10:41:53;103541.84;;;8.25;100.00
71638;BME280;59485;43.542;-5.676;2023-02-10T10:44:19;103535.78;;;8.34;100.00
71638;BME280;59485;43.542;-5.676;2023-02-10T10:46:49;103540.28;;;8.48;100.00
71638;BME280;59485;43.542;-5.676;2023-02-10T10:49:17;103531.97;;;8.62;100.00
71638;BME280;59485;43.542;-5.676;2023-02-10T10:51:43;103532.38;;;8.69;100.00
71638;BME280;59485;43.542;-5.676;2023-02-10T10:54:12;103531.50;;;8.81;100.00
71638;BME280;59485;43.542;-5.676;2023-02-10T10:56:43;103526.25;;;8.90;100.00
71638;BME280;59485;43.542;-5.676;2023-02-10T10:59:14;103537.50;;;8.98;100.00
71638;BME280;59485;43.542;-5.676;2023-02-10T11:01:41;103524.13;;;9.07;100.00
71638;BME280;59485;43.542;-5.676;2023-02-10T11:04:17;103526.28;;;9.14;100.00
71638;BME280;59485;43.542;-5.676;2023-02-10T11:06:43;103518.63;;;9.19;100.00
71638;BME280;59485;43.542;-5.676;2023-02-10T11:09:17;103514.22;;;9.29;100.00
71638;BME280;59485;43.542;-5.676;2023-02-10T11:11:44;103520.31;;;9.33;100.00
71638;BME280;59485;43.542;-5.676;2023-02-10T11:14:23;103516.28;;;9.38;100.00
71638;BME280;59485;43.542;-5.676;2023-02-10T11:16:50;103521.16;;;9.46;100.00
71638;BME280;59485;43.542;-5.676;2023-02-10T11:19:17;103515.22;;;9.52;100.00
71638;BME280;59485;43.542;-5.676;2023-02-10T11:21:43;103513.25;;;9.54;100.00
71638;BME280;59485;43.542;-5.676;2023-02-10T11:24:20;103515.75;;;9.57;100.00
71638;BME280;59485;43.542;-5.676;2023-02-10T11:27:03;103513.66;;;9.61;100.00
71638;BME280;59485;43.542;-5.676;2023-02-10T11:29:30;103511.56;;;9.64;100.00
71638;BME280;59485;43.542;-5.676;2023-02-10T11:31:56;103507.69;;;9.67;100.00
71638;BME280;59485;43.542;-5.676;2023-02-10T11:36:47;103500.13;;;9.70;100.00
71638;BME280;59485;43.542;-5.676;2023-02-10T11:39:17;103503.38;;;9.75;100.00
71638;BME280;59485;43.542;-5.676;2023-02-10T11:41:44;103494.31;;;9.75;100.00
71638;BME280;59485;43.542;-5.676;2023-02-10T11:44:30;103492.19;;;9.78;100.00
71638;BME280;59485;43.542;-5.676;2023-02-10T11:47:04;103487.69;;;9.77;100.00
71638;BME280;59485;43.542;-5.676;2023-02-10T11:49:34;103490.09;;;9.82;100.00
71638;BME280;59485;43.542;-5.676;2023-02-10T11:52:02;103488.84;;;9.86;100.00
71638;BME280;59485;43.542;-5.676;2023-02-10T11:54:31;103485.88;;;9.89;100.00
71638;BME280;59485;43.542;-5.676;2023-02-10T11:57:01;103482.66;;;9.95;100.00
71638;BME280;59485;43.542;-5.676;2023-02-10T12:02:18;103478.69;;;9.99;100.00
71638;BME280;59485;43.542;-5.676;2023-02-10T12:04:54;103463.75;;;10.03;100.00
71638;BME280;59485;43.542;-5.676;2023-02-10T12:08:07;103473.72;;;10.04;100.00
71638;BME280;59485;43.542;-5.676;2023-02-10T12:10:14;103468.50;;;10.01;100.00
71638;BME280;59485;43.542;-5.676;2023-02-10T12:20:53;103459.84;;;10.19;100.00
71638;BME280;59485;43.542;-5.676;2023-02-10T12:26:18;103465.06;;;10.22;100.00
71638;BME280;59485;43.542;-5.676;2023-02-10T12:29:01;103468.56;;;10.24;100.00
71638;BME280;59485;43.542;-5.676;2023-02-10T12:32:02;103455.97;;;10.21;100.00
71638;BME280;59485;43.542;-5.676;2023-02-10T12:45:05;103446.66;;;10.46;100.00
71638;BME280;59485;43.542;-5.676;2023-02-10T12:50:02;103438.91;;;10.40;100.00
71638;BME280;59485;43.542;-5.676;2023-02-10T12:52:40;103448.13;;;10.39;100.00
71638;BME280;59485;43.542;-5.676;2023-02-10T12:55:15;103441.41;;;10.43;100.00
71638;BME280;59485;43.542;-5.676;2023-02-10T12:57:46;103438.66;;;10.43;100.00
71638;BME280;59485;43.542;-5.676;2023-02-10T13:00:14;103432.56;;;10.39;100.00
71638;BME280;59485;43.542;-5.676;2023-02-10T13:06:11;103433.19;;;10.43;100.00
71638;BME280;59485;43.542;-5.676;2023-02-10T13:08:10;103420.72;;;10.50;100.00
71638;BME280;59485;43.542;-5.676;2023-02-10T13:10:38;103419.97;;;10.48;100.00
71638;BME280;59485;43.542;-5.676;2023-02-10T13:13:07;103410.75;;;10.49;100.00
71638;BME280;59485;43.542;-5.676;2023-02-10T13:18:01;103406.75;;;10.53;100.00
71638;BME280;59485;43.542;-5.676;2023-02-10T13:33:58;103392.28;;;10.62;100.00
71638;BME280;59485;43.542;-5.676;2023-02-10T13:36:14;103393.28;;;10.61;100.00
71638;BME280;59485;43.542;-5.676;2023-02-10T13:44:38;103377.53;;;10.74;100.00
71638;BME280;59485;43.542;-5.676;2023-02-10T13:50:17;103369.69;;;10.81;100.00
71638;BME280;59485;43.542;-5.676;2023-02-10T13:52:26;103380.91;;;10.89;100.00
71638;BME280;59485;43.542;-5.676;2023-02-10T13:54:56;103364.31;;;10.90;100.00
71638;BME280;59485;43.542;-5.676;2023-02-10T13:57:32;103367.78;;;10.93;100.00
71638;BME280;59485;43.542;-5.676;2023-02-10T14:00:09;103369.63;;;10.92;100.00
71638;BME280;59485;43.542;-5.676;2023-02-10T14:02:36;103362.66;;;10.99;100.00
71638;BME280;59485;43.542;-5.676;2023-02-10T14:05:01;103365.25;;;11.01;100.00
71638;BME280;59485;43.542;-5.676;2023-02-10T14:12:32;103354.97;;;11.14;100.00
71638;BME280;59485;43.542;-5.676;2023-02-10T14:15:12;103354.44;;;11.20;100.00
71638;BME280;59485;43.542;-5.676;2023-02-10T14:17:42;103349.09;;;11.18;100.00
71638;BME280;59485;43.542;-5.676;2023-02-10T14:20:20;103347.28;;;11.28;100.00
71638;BME280;59485;43.542;-5.676;2023-02-10T14:22:49;103339.63;;;11.43;100.00
71638;BME280;59485;43.542;-5.676;2023-02-10T14:27:40;103342.09;;;11.46;100.00
71638;BME280;59485;43.542;-5.676;2023-02-10T14:32:51;103335.28;;;11.61;100.00
71638;BME280;59485;43.542;-5.676;2023-02-10T14:35:18;103333.84;;;11.67;100.00
71638;BME280;59485;43.542;-5.676;2023-02-10T14:37:50;103333.59;;;11.70;100.00
71638;BME280;59485;43.542;-5.676;2023-02-10T14:40:15;103321.97;;;11.78;100.00
71638;BME280;59485;43.542;-5.676;2023-02-10T14:42:41;103318.06;;;11.80;100.00
71638;BME280;59485;43.542;-5.676;2023-02-10T14:45:07;103324.56;;;11.79;100.00
71638;BME280;59485;43.542;-5.676;2023-02-10T14:47:43;103321.97;;;11.78;100.00
71638;BME280;59485;43.542;-5.676;2023-02-10T14:50:30;103315.94;;;11.73;100.00
71638;BME280;59485;43.542;-5.676;2023-02-10T14:52:55;103316.47;;;11.78;100.00
71638;BME280;59485;43.542;-5.676;2023-02-10T14:55:22;103315.16;;;11.82;100.00
71638;BME280;59485;43.542;-5.676;2023-02-10T14:57:47;103314.22;;;11.72;100.00
71638;BME280;59485;43.542;-5.676;2023-02-10T15:00:13;103311.47;;;11.72;100.00
71638;BME280;59485;43.542;-5.676;2023-02-10T15:02:39;103309.25;;;11.65;100.00
71638;BME280;59485;43.542;-5.676;2023-02-10T15:05:06;103310.75;;;11.70;100.00
71638;BME280;59485;43.542;-5.676;2023-02-10T15:07:34;103310.28;;;11.85;100.00
71638;BME280;59485;43.542;-5.676;2023-02-10T15:13:04;103303.09;;;11.94;100.00
71638;BME280;59485;43.542;-5.676;2023-02-10T15:15:32;103307.63;;;12.05;100.00
71638;BME280;59485;43.542;-5.676;2023-02-10T15:18:02;103303.75;;;12.07;100.00
71638;BME280;59485;43.542;-5.676;2023-02-10T15:20:30;103296.53;;;12.16;100.00
71638;BME280;59485;43.542;-5.676;2023-02-10T15:28:16;103288.25;;;12.56;100.00
71638;BME280;59485;43.542;-5.676;2023-02-10T15:30:43;103281.31;;;12.71;100.00
71638;BME280;59485;43.542;-5.676;2023-02-10T15:33:14;103278.25;;;12.64;100.00
71638;BME280;59485;43.542;-5.676;2023-02-10T15:35:49;103280.03;;;12.94;100.00
71638;BME280;59485;43.542;-5.676;2023-02-10T15:38:15;103276.44;;;13.32;100.00
71638;BME280;59485;43.542;-5.676;2023-02-10T15:40:41;103268.84;;;13.44;100.00
71638;BME280;59485;43.542;-5.676;2023-02-10T15:43:29;103276.19;;;13.72;100.00
71638;BME280;59485;43.542;-5.676;2023-02-10T15:46:15;103262.22;;;13.83;100.00
71638;BME280;59485;43.542;-5.676;2023-02-10T15:48:41;103267.13;;;13.89;100.00
71638;BME280;59485;43.542;-5.676;2023-02-10T15:51:09;103267.19;;;14.07;100.00
71638;BME280;59485;43.542;-5.676;2023-02-10T15:53:40;103269.19;;;14.15;100.00
71638;BME280;59485;43.542;-5.676;2023-02-10T15:56:05;103261.34;;;14.20;100.00
71638;BME280;59485;43.542;-5.676;2023-02-10T15:58:31;103256.53;;;14.22;100.00
71638;BME280;59485;43.542;-5.676;2023-02-10T16:00:56;103262.75;;;14.24;100.00
71638;BME280;59485;43.542;-5.676;2023-02-10T16:03:22;103266.94;;;14.28;100.00
71638;BME280;59485;43.542;-5.676;2023-02-10T16:05:47;103260.91;;;14.15;100.00
71638;BME280;59485;43.542;-5.676;2023-02-10T16:08:17;103256.53;;;14.22;100.00
71638;BME280;59485;43.542;-5.676;2023-02-10T16:10:43;103261.44;;;14.28;100.00
71638;BME280;59485;43.542;-5.676;2023-02-10T16:13:11;103267.91;;;14.09;100.00
71638;BME280;59485;43.542;-5.676;2023-02-10T16:15:37;103264.88;;;14.12;100.00
71638;BME280;59485;43.542;-5.676;2023-02-10T16:18:02;103270.91;;;14.16;100.00
71638;BME280;59485;43.542;-5.676;2023-02-10T16:20:29;103263.16;;;14.02;100.00
71638;BME280;59485;43.542;-5.676;2023-02-10T16:22:54;103267.44;;;13.86;100.00
71638;BME280;59485;43.542;-5.676;2023-02-10T16:25:21;103268.34;;;13.77;100.00
71638;BME280;59485;43.542;-5.676;2023-02-10T16:27:47;103259.03;;;13.78;100.00
71638;BME280;59485;43.542;-5.676;2023-02-10T16:30:14;103259.25;;;13.67;100.00
71638;BME280;59485;43.542;-5.676;2023-02-10T16:32:40;103256.66;;;13.56;100.00
71638;BME280;59485;43.542;-5.676;2023-02-10T16:35:05;103253.03;;;13.56;100.00
71638;BME280;59485;43.542;-5.676;2023-02-10T16:37:31;103250.88;;;13.49;100.00
71638;BME280;59485;43.542;-5.676;2023-02-10T16:39:56;103257.16;;;13.32;100.00
71638;BME280;59485;43.542;-5.676;2023-02-10T16:42:22;103266.44;;;13.31;100.00
71638;BME280;59485;43.542;-5.676;2023-02-10T16:44:47;103262.22;;;13.27;100.00
71638;BME280;59485;43.542;-5.676;2023-02-10T16:47:13;103258.59;;;13.27;100.00
71638;BME280;59485;43.542;-5.676;2023-02-10T16:49:40;103264.97;;;13.18;100.00
71638;BME280;59485;43.542;-5.676;2023-02-10T16:52:06;103271.03;;;13.11;100.00
71638;BME280;59485;43.542;-5.676;2023-02-10T16:54:31;103265.25;;;13.05;100.00
71638;BME280;59485;43.542;-5.676;2023-02-10T16:56:56;103267.56;;;13.00;100.00
71638;BME280;59485;43.542;-5.676;2023-02-10T16:59:22;103269.63;;;12.88;100.00
71638;BME280;59485;43.542;-5.676;2023-02-10T17:01:47;103262.50;;;12.86;100.00
71638;BME280;59485;43.542;-5.676;2023-02-10T17:04:13;103269.88;;;12.75;100.00
71638;BME280;59485;43.542;-5.676;2023-02-10T17:06:41;103269.59;;;12.78;100.00
71638;BME280;59485;43.542;-5.676;2023-02-10T17:09:09;103285.53;;;12.75;100.00
71638;BME280;59485;43.542;-5.676;2023-02-10T17:11:37;103277.69;;;12.61;100.00
71638;BME280;59485;43.542;-5.676;2023-02-10T17:14:03;103280.16;;;12.64;100.00